createdAt,value
2018-07-13T00:01:12.513Z,7.73
2018-07-13T00:03:40.946Z,8.00
2018-07-13T00:06:09.425Z,8.17
2018-07-13T00:08:37.833Z,7.57
2018-07-13T00:11:06.354Z,8.60
2018-07-13T00:13:44.732Z,7.83
2018-07-13T00:16:13.174Z,7.67
2018-07-13T00:18:41.572Z,8.27
2018-07-13T00:21:10.110Z,8.20
2018-07-13T00:23:38.508Z,7.93
2018-07-13T00:26:06.934Z,7.40
2018-07-13T00:28:35.385Z,6.97
2018-07-13T00:31:03.791Z,7.80
2018-07-13T00:33:32.223Z,7.53
2018-07-13T00:36:00.649Z,7.30
2018-07-13T00:38:30.056Z,7.80
2018-07-13T00:40:58.514Z,8.13
2018-07-13T00:43:26.894Z,7.63
2018-07-13T00:45:55.293Z,8.00
2018-07-13T00:48:23.680Z,8.23
2018-07-13T00:50:52.097Z,7.40
2018-07-13T00:53:21.450Z,8.00
2018-07-13T00:55:49.865Z,7.73
2018-07-13T00:58:18.301Z,8.00
2018-07-13T01:00:46.732Z,8.60
2018-07-13T01:03:15.214Z,8.27
2018-07-13T01:05:43.662Z,8.87
2018-07-13T01:08:12.082Z,8.20
2018-07-13T01:10:41.185Z,7.87
2018-07-13T01:13:09.682Z,8.77
2018-07-13T01:15:38.183Z,7.50
2018-07-13T01:18:06.775Z,8.07
2018-07-13T01:20:35.205Z,7.70
2018-07-13T01:23:03.615Z,8.27
2018-07-13T01:25:32.153Z,8.30
2018-07-13T01:28:00.557Z,8.20
2018-07-13T01:30:28.997Z,8.73
2018-07-13T01:32:57.478Z,7.80
2018-07-13T01:35:26.211Z,7.83
2018-07-13T01:37:54.637Z,8.43
2018-07-13T01:40:23.073Z,8.77
2018-07-13T01:42:51.505Z,7.83
2018-07-13T01:45:20.182Z,8.10
2018-07-13T01:47:48.585Z,8.70
2018-07-13T01:50:17.628Z,8.93
2018-07-13T01:52:46.279Z,7.97
2018-07-13T01:55:14.834Z,8.67
2018-07-13T01:57:43.335Z,8.10
2018-07-13T02:00:11.821Z,7.93
2018-07-13T02:02:40.354Z,8.27
2018-07-13T02:05:08.789Z,8.07
2018-07-13T02:07:37.269Z,8.23
2018-07-13T02:10:05.801Z,7.70
2018-07-13T02:12:34.281Z,7.97
2018-07-13T02:15:02.706Z,8.00
2018-07-13T02:17:31.145Z,8.27
2018-07-13T02:19:59.605Z,8.30
2018-07-13T02:22:28.060Z,8.07
2018-07-13T02:24:56.461Z,8.50
2018-07-13T02:27:24.913Z,9.17
2018-07-13T02:29:53.437Z,9.03
2018-07-13T02:32:21.879Z,8.80
2018-07-13T02:34:50.322Z,9.73
2018-07-13T02:37:18.817Z,9.53
2018-07-13T02:39:47.288Z,9.70
2018-07-13T02:42:15.777Z,8.73
2018-07-13T02:44:44.286Z,9.50
2018-07-13T02:47:12.775Z,9.10
2018-07-13T02:49:41.194Z,9.20
2018-07-13T02:52:09.636Z,9.63
2018-07-13T02:54:38.033Z,9.27
2018-07-13T02:57:06.473Z,9.60
2018-07-13T02:59:34.893Z,9.63
2018-07-13T03:02:03.299Z,10.30
2018-07-13T03:04:31.767Z,9.70
2018-07-13T03:07:00.197Z,9.17
2018-07-13T03:09:28.598Z,9.77
2018-07-13T03:11:57.013Z,9.67
2018-07-13T03:14:25.452Z,9.37
2018-07-13T03:16:53.889Z,9.93
2018-07-13T03:19:22.311Z,10.83
2018-07-13T03:21:50.762Z,9.83
2018-07-13T03:24:19.198Z,9.97
2018-07-13T03:26:47.672Z,9.80
2018-07-13T03:29:16.145Z,9.53
2018-07-13T03:31:44.576Z,10.03
2018-07-13T03:34:13.007Z,10.03
2018-07-13T03:36:41.398Z,10.00
2018-07-13T03:39:09.840Z,10.00
2018-07-13T03:41:38.273Z,10.37
2018-07-13T03:44:06.754Z,10.37
2018-07-13T03:46:35.190Z,9.27
2018-07-13T03:49:03.655Z,9.63
2018-07-13T03:51:32.039Z,9.60
2018-07-13T03:54:00.803Z,9.50
2018-07-13T03:56:29.160Z,10.63
2018-07-13T03:58:57.610Z,9.27
2018-07-13T04:01:26.021Z,10.07
2018-07-13T04:03:54.460Z,9.37
2018-07-13T04:06:22.916Z,10.00
2018-07-13T04:08:52.030Z,9.00
2018-07-13T04:11:20.498Z,9.27
2018-07-13T04:13:48.909Z,9.37
2018-07-13T04:16:17.361Z,9.73
2018-07-13T04:18:45.794Z,9.10
2018-07-13T04:21:14.489Z,9.77
2018-07-13T04:23:42.997Z,8.97
2018-07-13T04:26:11.479Z,9.20
2018-07-13T04:28:40.294Z,9.73
2018-07-13T04:31:08.717Z,9.23
2018-07-13T04:33:37.156Z,9.73
2018-07-13T04:36:05.622Z,9.70
2018-07-13T04:38:34.136Z,9.67
2018-07-13T04:41:02.600Z,10.13
2018-07-13T04:43:31.045Z,9.60
2018-07-13T04:45:59.537Z,9.40
2018-07-13T04:48:28.089Z,9.43
2018-07-13T04:50:56.621Z,9.10
2018-07-13T04:53:25.217Z,8.63
2018-07-13T04:55:53.754Z,8.83
2018-07-13T04:58:22.263Z,9.17
2018-07-13T05:00:50.765Z,8.87
2018-07-13T05:03:19.881Z,9.47
2018-07-13T05:05:48.422Z,9.40
2018-07-13T05:08:17.029Z,9.00
2018-07-13T05:10:45.499Z,9.60
2018-07-13T05:13:14.459Z,8.60
2018-07-13T05:15:42.906Z,9.17
2018-07-13T05:18:11.394Z,9.00
2018-07-13T05:20:39.881Z,9.13
2018-07-13T05:23:08.365Z,8.50
2018-07-13T05:25:36.929Z,8.13
2018-07-13T05:28:06.113Z,8.70
2018-07-13T05:30:34.606Z,8.00
2018-07-13T05:33:03.146Z,8.70
2018-07-13T05:35:31.631Z,8.70
2018-07-13T05:38:00.213Z,8.67
2018-07-13T05:40:28.677Z,9.33
2018-07-13T05:42:57.165Z,8.70
2018-07-13T05:45:25.809Z,8.33
2018-07-13T05:47:54.309Z,8.20
2018-07-13T05:50:22.788Z,7.83
2018-07-13T05:52:51.453Z,7.30
2018-07-13T05:55:20.035Z,7.70
2018-07-13T05:57:49.393Z,7.90
2018-07-13T06:00:17.945Z,8.00
2018-07-13T06:02:46.488Z,8.13
2018-07-13T06:05:15.077Z,9.30
2018-07-13T06:07:43.621Z,8.60
2018-07-13T06:10:12.124Z,8.50
2018-07-13T06:12:40.660Z,9.47
2018-07-13T06:15:09.317Z,9.37
2018-07-13T06:17:37.686Z,9.57
2018-07-13T06:20:08.854Z,9.53
2018-07-13T06:22:37.357Z,9.77
2018-07-13T06:25:06.813Z,9.87
2018-07-13T06:27:35.278Z,10.30
2018-07-13T06:30:03.850Z,10.47
2018-07-13T06:32:32.341Z,10.17
2018-07-13T06:35:01.235Z,10.27
2018-07-13T06:37:29.926Z,10.30
2018-07-13T06:39:58.470Z,10.63
2018-07-13T06:42:26.931Z,11.40
2018-07-13T06:44:55.534Z,11.17
2018-07-13T06:47:23.982Z,11.57
2018-07-13T06:49:52.727Z,11.20
2018-07-13T06:52:21.261Z,11.60
2018-07-13T06:54:49.700Z,13.37
2018-07-13T06:59:26.976Z,12.43
2018-07-13T07:01:55.445Z,11.63
2018-07-13T07:04:34.869Z,14.13
2018-07-13T07:07:07.702Z,13.63
2018-07-13T07:09:36.627Z,13.33
2018-07-13T07:13:18.371Z,12.97
2018-07-13T07:15:46.859Z,13.63
2018-07-13T07:18:15.308Z,13.07
2018-07-13T07:20:43.785Z,13.23
2018-07-13T07:23:12.294Z,13.57
2018-07-13T07:25:40.771Z,13.23
2018-07-13T07:28:09.245Z,13.27
2018-07-13T07:30:37.713Z,12.90
2018-07-13T07:33:06.248Z,13.73
2018-07-13T07:35:34.742Z,13.17
2018-07-13T07:38:03.170Z,13.77
2018-07-13T07:40:31.706Z,13.43
2018-07-13T07:43:00.245Z,15.47
2018-07-13T07:45:28.761Z,15.07
2018-07-13T07:48:02.570Z,12.47
2018-07-13T07:50:31.102Z,13.17
2018-07-13T07:52:59.670Z,13.70
2018-07-13T07:55:28.300Z,13.13
2018-07-13T07:57:56.803Z,13.33
2018-07-13T08:00:25.196Z,13.13
2018-07-13T08:02:54.587Z,12.60
2018-07-13T08:05:23.056Z,11.67
2018-07-13T08:07:51.561Z,12.60
2018-07-13T08:10:20.022Z,12.80
2018-07-13T08:12:48.462Z,12.70
2018-07-13T08:15:16.853Z,12.27
2018-07-13T08:17:45.326Z,11.90
2018-07-13T08:20:19.439Z,12.77
2018-07-13T08:22:58.565Z,11.70
2018-07-13T08:25:27.582Z,11.83
2018-07-13T08:27:58.653Z,12.57
2018-07-13T08:30:34.482Z,10.63
2018-07-13T08:33:02.929Z,10.60
2018-07-13T08:35:31.362Z,9.73
2018-07-13T08:37:59.824Z,11.97
2018-07-13T08:40:28.318Z,11.80
2018-07-13T08:42:56.882Z,12.23
2018-07-13T08:45:25.408Z,12.33
2018-07-13T08:47:53.920Z,11.13
2018-07-13T08:50:22.412Z,11.80
2018-07-13T10:14:49.013Z,7.87
2018-07-13T10:17:17.507Z,9.47
2018-07-13T10:19:46.009Z,8.20
2018-07-13T10:22:17.826Z,8.90
2018-07-13T10:24:47.270Z,8.33
2018-07-13T10:27:16.409Z,8.57
2018-07-13T10:29:47.197Z,8.43
2018-07-13T10:32:15.738Z,7.73
2018-07-13T10:34:44.565Z,5.83
2018-07-13T10:37:13.082Z,5.80
2018-07-13T10:39:41.620Z,6.13
2018-07-13T10:42:10.103Z,6.77
2018-07-13T10:44:38.587Z,7.27
2018-07-13T10:47:07.144Z,7.83
2018-07-13T10:49:35.592Z,7.30
2018-07-13T10:52:04.106Z,7.60
2018-07-13T10:54:32.581Z,8.40
2018-07-13T10:57:01.134Z,6.80
2018-07-13T10:59:29.542Z,5.90
2018-07-13T11:01:57.991Z,7.33
2018-07-13T11:04:26.442Z,8.47
2018-07-13T11:06:54.909Z,8.03
2018-07-13T11:09:23.378Z,7.33
2018-07-13T11:11:52.030Z,6.77
2018-07-13T11:14:20.474Z,5.30
2018-07-13T11:16:48.911Z,5.57
2018-07-13T11:19:17.457Z,4.97
2018-07-13T11:21:45.905Z,5.00
2018-07-13T11:24:14.337Z,4.27
2018-07-13T11:26:42.835Z,5.40
2018-07-13T11:29:11.278Z,5.40
2018-07-13T11:31:39.741Z,4.73
2018-07-13T11:34:08.197Z,4.77
2018-07-13T11:36:36.706Z,4.73
2018-07-13T11:39:06.855Z,4.43
2018-07-13T11:41:35.309Z,4.80
2018-07-13T11:44:03.797Z,5.30
2018-07-13T11:46:32.246Z,5.07
2018-07-13T11:49:00.670Z,5.35
2018-07-13T11:51:29.185Z,5.30
2018-07-13T11:53:57.737Z,4.53
2018-07-13T11:56:26.280Z,3.77
2018-07-13T11:58:54.773Z,4.00
2018-07-13T12:01:23.257Z,4.20
2018-07-13T12:03:51.757Z,4.10
2018-07-13T12:06:20.241Z,4.57
2018-07-13T12:08:48.767Z,4.30
2018-07-13T12:11:17.281Z,3.77
2018-07-13T12:13:45.865Z,3.60
2018-07-13T12:16:14.329Z,4.30
2018-07-13T12:18:42.788Z,4.90
2018-07-13T12:21:11.203Z,4.53
2018-07-13T12:23:39.648Z,5.93
2018-07-13T12:26:08.053Z,5.27
2018-07-13T12:28:36.541Z,5.77
2018-07-13T12:31:05.059Z,5.73
2018-07-13T12:33:33.565Z,4.90
2018-07-13T12:36:02.067Z,5.57
2018-07-13T12:38:30.511Z,4.90
2018-07-13T12:40:58.936Z,4.47
2018-07-13T12:43:27.399Z,4.10
2018-07-13T12:45:55.966Z,4.50
2018-07-13T12:48:24.429Z,4.13
2018-07-13T12:50:52.930Z,5.17
2018-07-13T12:53:21.673Z,4.70
2018-07-13T12:55:50.097Z,4.20
2018-07-13T12:58:18.574Z,4.80
2018-07-13T13:00:47.067Z,4.30
2018-07-13T13:03:15.569Z,3.80
2018-07-13T13:05:44.158Z,4.20
2018-07-13T13:08:12.638Z,3.73
2018-07-13T13:10:41.120Z,4.33
2018-07-13T13:13:09.555Z,3.43
2018-07-13T13:15:37.969Z,3.73
2018-07-13T13:18:06.462Z,3.10
2018-07-13T13:20:34.886Z,3.45
2018-07-13T13:23:05.423Z,3.50
2018-07-13T13:25:33.892Z,3.83
2018-07-13T13:28:02.410Z,3.55
2018-07-13T13:30:30.979Z,3.83
2018-07-13T13:32:59.568Z,4.42
2018-07-13T13:35:28.150Z,3.55
2018-07-13T13:37:56.562Z,3.87
2018-07-13T13:40:25.024Z,4.00
2018-07-13T13:43:00.050Z,3.80
2018-07-13T13:45:28.462Z,3.50
2018-07-13T13:47:56.914Z,3.70
2018-07-13T13:50:25.356Z,3.10
2018-07-13T13:52:53.910Z,3.30
2018-07-13T13:55:22.511Z,3.20
2018-07-13T13:57:51.010Z,3.20
2018-07-13T14:00:19.538Z,3.35
2018-07-13T14:02:47.968Z,3.30
2018-07-13T14:05:16.518Z,3.20
2018-07-13T14:07:44.887Z,3.08
2018-07-13T14:10:13.342Z,3.20
2018-07-13T14:12:41.815Z,3.37
2018-07-13T14:15:10.270Z,3.17
2018-07-13T14:17:38.750Z,3.00
2018-07-13T14:20:07.201Z,3.50
2018-07-13T14:22:35.673Z,3.25
2018-07-13T14:25:04.198Z,3.40
2018-07-13T14:27:32.609Z,2.70
2018-07-13T14:30:01.038Z,3.33
2018-07-13T14:32:29.529Z,2.40
2018-07-13T14:34:58.077Z,3.10
2018-07-13T14:37:26.482Z,2.70
2018-07-13T14:39:54.909Z,3.00
2018-07-13T14:42:23.341Z,2.83
2018-07-13T14:44:51.776Z,3.70
2018-07-13T14:47:23.478Z,3.20
2018-07-13T14:49:51.882Z,3.12
2018-07-13T14:52:20.266Z,2.83
2018-07-13T14:54:48.846Z,3.17
2018-07-13T14:57:17.334Z,2.67
2018-07-13T14:59:45.842Z,2.87
2018-07-13T15:02:14.302Z,3.15
2018-07-13T15:04:42.872Z,3.10
2018-07-13T15:07:11.441Z,2.92
2018-07-13T15:09:40.090Z,3.00
2018-07-13T15:12:08.614Z,2.58
2018-07-13T15:14:37.121Z,3.00
2018-07-13T15:17:05.605Z,3.10
2018-07-13T15:19:34.105Z,2.67
2018-07-13T15:22:02.566Z,2.90
2018-07-13T15:24:31.017Z,2.22
2018-07-13T15:26:59.540Z,2.80
2018-07-13T15:29:28.038Z,2.60
2018-07-13T15:31:56.626Z,2.77
2018-07-13T15:34:25.657Z,3.08
2018-07-13T15:36:54.193Z,2.40
2018-07-13T15:39:22.653Z,2.90
2018-07-13T15:41:51.227Z,2.90
2018-07-13T15:44:19.675Z,2.85
2018-07-13T15:46:48.248Z,2.98
2018-07-13T15:49:16.698Z,3.15
2018-07-13T15:51:45.209Z,3.12
2018-07-13T15:54:13.650Z,3.40
2018-07-13T15:56:42.152Z,2.60
2018-07-13T15:59:10.626Z,3.10
2018-07-13T16:01:39.133Z,2.55
2018-07-13T16:04:07.613Z,2.92
2018-07-13T16:06:36.111Z,3.17
2018-07-13T16:09:04.597Z,2.70
2018-07-13T16:11:33.055Z,2.75
2018-07-13T16:14:01.538Z,2.40
2018-07-13T16:16:30.015Z,2.52
2018-07-13T16:18:58.474Z,2.80
2018-07-13T16:21:30.393Z,2.83
2018-07-13T16:23:59.039Z,2.83
2018-07-13T16:26:28.127Z,2.95
2018-07-13T16:28:56.694Z,2.73
2018-07-13T16:31:25.237Z,2.70
2018-07-13T16:33:53.746Z,2.60
2018-07-13T16:36:22.219Z,2.90
2018-07-13T16:38:50.714Z,3.00
2018-07-13T16:44:15.577Z,3.17
2018-07-13T16:46:44.051Z,2.90
2018-07-13T16:49:12.580Z,3.45
2018-07-13T16:51:41.245Z,2.70
2018-07-13T16:54:09.691Z,3.15
2018-07-13T16:56:38.278Z,3.08
2018-07-13T16:59:06.649Z,3.15
2018-07-13T17:01:35.104Z,3.20
2018-07-13T17:04:03.537Z,3.00
2018-07-13T17:06:31.996Z,3.30
2018-07-13T17:09:00.483Z,3.40
2018-07-13T17:11:28.866Z,3.40
2018-07-13T17:13:57.353Z,3.30
2018-07-13T17:16:37.004Z,3.33
2018-07-13T17:19:05.653Z,2.83
2018-07-13T17:21:34.154Z,3.20
2018-07-13T17:24:02.605Z,3.10
2018-07-13T17:26:31.049Z,3.27
2018-07-13T17:29:00.249Z,2.83
2018-07-13T17:31:28.665Z,2.98
2018-07-13T17:33:57.179Z,3.27
2018-07-13T17:36:25.609Z,3.00
2018-07-13T17:38:54.177Z,3.50
2018-07-13T17:41:24.636Z,3.35
2018-07-13T17:43:53.085Z,3.17
2018-07-13T17:46:21.522Z,3.43
2018-07-13T17:48:50.119Z,3.10
2018-07-13T17:51:18.509Z,3.40
2018-07-13T17:53:46.990Z,3.20
2018-07-13T17:56:15.620Z,3.27
2018-07-13T17:58:44.060Z,3.17
2018-07-13T18:01:12.497Z,3.60
2018-07-13T18:03:40.963Z,3.40
2018-07-13T18:06:09.552Z,3.30
2018-07-13T18:08:38.015Z,3.65
2018-07-13T18:11:07.014Z,3.10
2018-07-13T18:13:35.496Z,3.17
2018-07-13T18:16:04.023Z,3.30
2018-07-13T18:18:32.471Z,3.65
2018-07-13T18:21:01.939Z,3.40
2018-07-13T18:23:30.389Z,3.17
2018-07-13T18:25:59.313Z,3.10
2018-07-13T18:28:27.758Z,3.60
2018-07-13T18:30:56.319Z,4.00
2018-07-13T18:33:24.907Z,3.85
2018-07-13T18:35:53.292Z,3.00
2018-07-13T18:38:21.788Z,3.20
2018-07-13T18:40:50.301Z,2.98
2018-07-13T18:43:18.740Z,3.10
2018-07-13T18:45:48.114Z,3.60
2018-07-13T18:48:16.685Z,3.42
2018-07-13T18:50:45.110Z,3.20
2018-07-13T18:53:13.597Z,3.40
2018-07-13T18:55:42.094Z,3.47
2018-07-13T18:58:10.515Z,3.43
2018-07-13T19:00:38.970Z,3.40
2018-07-13T19:03:07.581Z,3.57
2018-07-13T19:05:36.031Z,3.53
2018-07-13T19:08:04.576Z,3.33
2018-07-13T19:10:33.007Z,3.63
2018-07-13T19:13:01.510Z,3.40
2018-07-13T19:15:52.863Z,3.40
2018-07-13T19:18:21.360Z,3.17
2018-07-13T19:20:50.061Z,3.37
2018-07-13T19:23:18.441Z,3.10
2018-07-13T19:25:46.881Z,3.30
2018-07-13T19:28:15.328Z,3.50
2018-07-13T19:30:50.496Z,3.43
2018-07-13T19:33:18.846Z,3.50
2018-07-13T19:35:47.849Z,3.57
2018-07-13T19:38:16.348Z,4.10
2018-07-13T19:41:03.835Z,4.43
2018-07-13T19:43:32.295Z,4.00
2018-07-13T19:46:00.750Z,3.80
2018-07-13T19:48:29.148Z,3.30
2018-07-13T19:50:57.621Z,3.40
2018-07-13T19:53:26.087Z,3.50
2018-07-13T19:55:55.204Z,3.40
2018-07-13T19:58:23.723Z,3.93
2018-07-13T20:01:07.682Z,3.00
2018-07-13T20:03:36.127Z,4.23
2018-07-13T20:06:04.820Z,3.00
2018-07-13T20:08:35.055Z,3.17
2018-07-13T20:11:10.132Z,3.53
2018-07-13T20:13:38.655Z,3.23
2018-07-13T20:16:07.151Z,3.30
2018-07-13T20:18:35.639Z,3.43
2018-07-13T20:21:04.201Z,3.40
2018-07-13T20:23:32.834Z,3.43
2018-07-13T20:26:02.024Z,3.43
2018-07-13T20:28:30.521Z,3.73
2018-07-13T20:30:59.202Z,4.07
2018-07-13T20:33:27.734Z,4.60
2018-07-13T20:35:56.991Z,5.00
2018-07-13T20:38:25.423Z,5.00
2018-07-13T20:41:16.354Z,5.23
2018-07-13T20:43:44.749Z,4.70
2018-07-13T20:46:13.213Z,4.80
2018-07-13T20:48:41.745Z,4.60
2018-07-13T20:51:10.183Z,4.37
2018-07-13T20:53:38.607Z,4.13
2018-07-13T20:56:07.062Z,4.53
2018-07-13T20:58:35.505Z,4.27
2018-07-13T21:01:04.037Z,4.80
2018-07-13T21:03:32.474Z,4.20
2018-07-13T21:06:00.877Z,4.20
2018-07-13T21:08:29.307Z,3.97
2018-07-13T21:10:57.886Z,3.93
2018-07-13T21:13:26.270Z,4.10
2018-07-13T21:15:54.685Z,4.07
2018-07-13T21:18:23.126Z,4.30
2018-07-13T21:20:51.707Z,4.10
2018-07-13T21:23:20.229Z,3.87
2018-07-13T21:26:00.181Z,4.10
2018-07-13T21:28:29.301Z,4.00
2018-07-13T21:30:57.869Z,3.83
2018-07-13T21:33:48.744Z,4.17
2018-07-13T21:36:17.193Z,3.50
2018-07-13T21:38:45.652Z,4.30
2018-07-13T21:41:14.108Z,4.03
2018-07-13T21:43:42.517Z,3.90
2018-07-13T21:46:11.062Z,4.57
2018-07-13T21:48:46.157Z,4.23
2018-07-13T21:51:14.573Z,4.00
2018-07-13T21:53:43.010Z,4.27
2018-07-13T21:56:11.489Z,4.40
2018-07-13T21:58:39.917Z,4.60
2018-07-13T22:01:08.410Z,4.70
2018-07-13T22:03:36.854Z,4.20
2018-07-13T22:06:05.341Z,4.77
2018-07-13T22:08:33.782Z,4.87
2018-07-13T22:11:02.219Z,4.50
2018-07-13T22:13:30.707Z,4.73
2018-07-13T22:15:59.141Z,4.33
2018-07-13T22:18:40.819Z,4.97
2018-07-13T22:21:09.293Z,4.70
2018-07-13T22:23:37.783Z,5.30
2018-07-13T22:26:06.302Z,4.43
2018-07-13T22:28:34.828Z,4.23
2018-07-13T22:31:03.371Z,4.40
2018-07-13T22:33:51.993Z,5.17
2018-07-13T22:36:20.420Z,4.93
2018-07-13T22:38:48.852Z,5.13
2018-07-13T22:41:17.295Z,5.13
2018-07-13T22:43:45.785Z,5.27
2018-07-13T22:46:14.282Z,4.70
2018-07-13T22:48:42.773Z,4.73
2018-07-13T22:51:15.921Z,4.60
2018-07-13T22:53:44.361Z,5.13
2018-07-13T22:56:12.752Z,4.90
2018-07-13T22:58:41.176Z,4.50
2018-07-13T23:01:09.583Z,4.80
2018-07-13T23:03:38.017Z,4.23
2018-07-13T23:06:06.613Z,4.80
2018-07-13T23:08:35.041Z,4.77
2018-07-13T23:11:04.350Z,5.17
2018-07-13T23:13:32.752Z,5.00
2018-07-13T23:16:01.170Z,4.97
2018-07-13T23:18:29.615Z,4.80
2018-07-13T23:20:58.050Z,5.13
2018-07-13T23:23:27.045Z,5.33
2018-07-13T23:25:55.501Z,4.77
2018-07-13T23:28:23.927Z,5.00
2018-07-13T23:30:52.540Z,5.00
2018-07-13T23:33:20.986Z,5.30
2018-07-13T23:35:49.429Z,5.47
2018-07-13T23:38:17.917Z,5.17
2018-07-13T23:40:46.345Z,5.77
2018-07-13T23:43:14.782Z,5.40
2018-07-13T23:45:43.214Z,4.83
2018-07-13T23:48:11.743Z,5.13
2018-07-13T23:50:40.156Z,5.03
2018-07-13T23:53:08.601Z,5.37
2018-07-13T23:55:37.084Z,5.83
2018-07-13T23:58:05.606Z,7.13
